Flight Track Log - Related Links

Times and Time Zones

All times are in EDT time to prevent confusion due to time zone crossing. See the EMD27 flight status page for this flight to view local times or setup timezone preferences in your user account.

Time Position Orientation Groundspeed Altitude Reporting Facility
EDT Latitude Longitude Course Direction KTS MPH feet Rate Location/Type
Fri 01:48:19 AM 31.5403 -82.8903 337° Northwest 205 236 3,000  Level Jacksonville Center
Fri 01:49:00 AM 31.7409 -83.0121 337° Northwest  Level FlightAware Approximate
Fri 01:49:19 AM 31.5861 -82.9122 338° Northwest 177 204 4,100  Level Jacksonville Center
Fri 01:50:19 AM 31.6278 -82.9342 336° Northwest 166 191 5,400 1,250 Climbing Jacksonville Center
Fri 01:51:19 AM 31.6717 -82.9608 333° Northwest 166 191 6,600 1,250 Climbing Jacksonville Center
Fri 01:52:19 AM 31.7133 -82.9878 331° Northwest 166 191 7,900 1,200 Climbing Jacksonville Center
Fri 01:53:19 AM 31.7594 -83.0122 336° Northwest 166 191 9,000 636 Climbing Jacksonville Center
Fri 01:55:37 AM 31.8703 -83.0803 332° Northwest 196 226 10,000 576 Climbing Atlanta Center
Fri 01:56:37 AM 31.9267 -83.1139 333° Northwest 217 250 10,900 1,050 Climbing Atlanta Center
Fri 01:57:37 AM 31.9772 -83.1428 334° Northwest 217 250 12,100 1,000 Climbing Atlanta Center
Fri 01:58:37 AM 32.0211 -83.1717 331° Northwest 207 238 12,900 800 Climbing Atlanta Center
Fri 01:59:37 AM 32.0672 -83.1958 336° Northwest 187 215 13,700 550 Climbing Atlanta Center
Fri 02:00:37 AM 32.1156 -83.2247 333° Northwest 181 208 14,000 150 Climbing Atlanta Center
Fri 02:01:37 AM 32.1658 -83.2561 332° Northwest 186 214 14,000  Level Atlanta Center
Fri 02:02:37 AM 32.2203 -83.2875 334° Northwest 199 229 14,000  Level Atlanta Center
Fri 02:03:37 AM 32.2747 -83.3192 334° Northwest 210 242 14,000  Level Atlanta Center
Fri 02:04:37 AM 32.3292 -83.3531 332° Northwest 215 247 14,000  Level Atlanta Center
Fri 02:05:37 AM 32.3897 -83.3919 332° Northwest 227 261 14,000  Level Atlanta Center
Fri 02:06:37 AM 32.4506 -83.4283 333° Northwest 232 267 14,000  Level Atlanta Center
Fri 02:07:37 AM 32.5092 -83.4625 334° Northwest 232 267 14,000  Level Atlanta Center
Fri 02:08:37 AM 32.5700 -83.4992 333° Northwest 238 274 14,000  Level Atlanta Center
Fri 02:09:37 AM 32.6286 -83.5406 329° Northwest 243 280 14,000  Level Atlanta Center
Fri 02:10:37 AM 32.6892 -83.5700 338° Northwest 243 280 14,000  Level Atlanta Center
Fri 02:11:37 AM 32.7478 -83.6092 331° Northwest 243 280 14,000  Level Atlanta Center
Fri 02:12:37 AM 32.8083 -83.6433 335° Northwest 243 280 14,000  Level Atlanta Center
Fri 02:13:37 AM 32.8669 -83.6803 332° Northwest 243 280 14,000  Level Atlanta Center
Fri 02:14:37 AM 32.9256 -83.7172 332° Northwest 243 280 14,000  Level Atlanta Center
Fri 02:15:37 AM 32.9839 -83.7517 334° Northwest 243 280 14,000  Level Atlanta Center
Fri 02:16:37 AM 33.0425 -83.7836 335° Northwest 243 280 14,000 50 Level Atlanta Center
Fri 02:17:37 AM 33.1072 -83.8256 332° Northwest 243 280 14,100  Climbing Atlanta Center
Fri 02:18:38 AM 33.1667 -83.8667 330° Northwest 239 275 14,000 -50 Descending Atlanta TRACON
Fri 02:19:38 AM 33.2333 -83.9000 337° Northwest 244 281 14,000 -454 Level Atlanta TRACON
Fri 02:20:37 AM 33.2892 -83.9369 331° Northwest 248 285 13,100 -1,160 Descending Atlanta Center
Fri 02:21:37 AM 33.3558 -83.9792 332° Northwest 259 298 11,700 -1,350 Descending Atlanta Center
Fri 02:22:37 AM 33.4228 -84.0089 340° North 259 298 10,400 -1,350 Descending Atlanta Center
Fri 02:23:37 AM 33.4936 -84.0364 342° North 254 292 9,000 -1,250 Descending Atlanta Center
Fri 02:24:37 AM 33.5564 -84.0589 343° North 254 292 7,900 2,500 Descending Atlanta Center
Fri 02:25:37 AM 33.6253 -84.0861 342° North 254 292 14,000 -1,450 Climbing Atlanta Center
Fri 02:26:37 AM 33.6919 -84.1161 339° North 254 292 5,000 -5,008 Descending Atlanta Center
Fri 02:27:38 AM 33.7667 -84.1500 339° North 241 277 3,900 -545 Descending Atlanta TRACON
Fri 02:28:38 AM 33.8167 -84.1500 360° North 196 226 3,900  Level Atlanta TRACON
Fri 02:29:38 AM 33.8833 -84.1500 360° North 191 220 3,900  Level Atlanta TRACON
Fri 02:30:38 AM 33.9333 -84.1667 345° North 192 221 3,900 -400 Level Atlanta TRACON
Fri 02:31:38 AM 33.9833 -84.1667 360° North 184 212 3,100 -500 Descending Atlanta TRACON
Fri 02:32:38 AM 34.0167 -84.2000 320° Northwest 181 208 2,900 -100 Descending Atlanta TRACON
Fri 02:33:38 AM 34.0000 -84.2500 248° West 178 205 2,900 -200 Level Atlanta TRACON
Fri 02:34:38 AM 33.9500 -84.2667 195° South 147 169 2,500 -550 Descending Atlanta TRACON
Fri 02:35:38 AM 33.9167 -84.2833 203° Southwest 141 162 1,800 -700 Descending Atlanta TRACON

Login

Don't have an account? Register now (free) for customized features, flight alerts, and more!